EDLV/NRN METAR and TAF weather

Enter ICAO airport designator
Station Type Date Time Source
EDLV METAR 2019/06/24 21:50 UTC NOAA

EDLV 242150Z 10002KT CAVOK 26/18 Q1017


Station Type Date Time Source
EDLV Decoded METAR 2019/06/24 21:50 UTC NOAA

Niederrhein, Germany (EDLV) 51-36-09N 006-08-32E
Jun 24, 2019 - 05:50 PM EDT / 2019.06.24 2150 UTC
Wind: from the E (100 degrees) at 2 MPH (2 KT):0
Visibility: greater than 7 mile(s):0
Temperature: 78 F (26 C)
Dew Point: 64 F (18 C)
Relative Humidity: 61%
Pressure (altimeter): 30.03 in. Hg (1017 hPa)
ob: EDLV 242150Z 10002KT CAVOK 26/18 Q1017
cycle: 22

Station Type Date Time Source
EDLV TAF 2019/06/24 22:54 UTC NOAA

TAF
AMD TAF
AMD EDLV 242250Z 2422/2518 CNL

Example: see airport list